Nearby METAR Reports

 

EGQL - Leuchars Raf, United Kingdom
Distance from station: SW 11mi, 17km
Updated: 21/11/2018 05:50
Light rain, Showers, Mostly cloudy
Light rain, Showers, Mostly cloudy
 Wind from E
Wind: E 37 mph , 59 km/h
Temperature: 7°C
Wind Chill: 1°C
Dew Point: 6°C
Humidity: 93%
Barometer: 1013 hPa
Summary: Light rain, Showers
Clouds: Mostly cloudy
Visibility: 6 miles , 10 km
Cloud details: Few Clouds 457 m
Mostly cloudy 1006 m
2018/11/21 05:50 EGQL 210550Z 10032KT 9999 -SHRA FEW015 BKN033 07/06 Q1013 RERA BLU
EGPN - Dundee/Riverside, United Kingdom
Distance from station: WSW 13mi, 20km
Updated: 21/11/2018 00:20
NOT Current
Rain showers, Partly cloudy
Rain showers, Partly cloudy
 Wind from ENE
Wind: ENE 10 mph , 17 km/h
Temperature: 7°C
Wind Chill: 4°C
Dew Point: 5°C
Humidity: 87%
Barometer: 1017 hPa
Summary: Rain Showers
Clouds: Partly cloudy
Visibility: 6 miles , 9 km
Cloud details: Partly cloudy 671 m
2018/11/21 00:20 EGPN 210020Z 07009KT 040V110 9000 SHRA SCT022 07/05 Q1017
 
EGPH - Edinburgh Airpor, United Kingdom
Distance from station: SSW 46mi, 74km
Updated: 21/11/2018 05:50
Heavy rain, Overcast
Heavy rain, Overcast
 Wind from E
Wind: E 20 mph , 31 km/h, Gust: 31 mph , 50 km/h
Temperature: 6°C
Wind Chill: 1°C
Dew Point: 4°C
Humidity: 87%
Barometer: 1011 hPa
Summary: Heavy rain
Clouds: Overcast
Visibility: 1 mile , 2 km
Cloud details: Mostly cloudy 396 m
Overcast 1250 m
2018/11/21 05:50 EGPH 210550Z 10017G27KT 1900 +RA BKN013CB OVC041 06/04 Q1011
EGPD - Aberdeen/Dyce, United Kingdom
Distance from station: NNE 51mi, 82km
Updated: 21/11/2018 05:50
Light rain, Thunderstorm
Light rain, Thunderstorm
 Wind from E
Wind: E 22 mph , 35 km/h
Temperature: 7°C
Wind Chill: 3°C
Dew Point: 5°C
Humidity: 87%
Barometer: 1017 hPa
Summary: Light rain
Clouds: Thunderstorm
Visibility: 4 miles , 6 km
Cloud details: Mostly cloudy 457 m
2018/11/21 05:50 EGPD 210550Z AUTO 10019KT 6000 -RA BKN015/// //////TCU 07/05 Q1017